Time;durP1;ratioP1;P1;durP2;ratioP2;P2;SDS_P1;SDS_P2;PMS_P1;PMS_P2;Temp;Humidity;BMP_temperature;BMP_pressure;BME280_temperature;BME280_humidity;BME280_pressure;Samples;Min_cycle;Max_cycle;Signal;HPM_P1;HPM_P2
2023/05/02 00:00:36;;;;;;;10.33;2.67;;;11.60;99.90;;;;;;4977590;28;20298;-82
2023/05/02 00:03:03;;;;;;;9.03;2.87;;;11.60;99.90;;;;;;4977407;28;20290;-81
2023/05/02 00:05:29;;;;;;;11.83;2.83;;;11.60;99.90;;;;;;4977325;28;20490;-82
2023/05/02 00:07:55;;;;;;;9.23;2.70;;;11.50;99.90;;;;;;4977555;28;20285;-82
2023/05/02 00:10:21;;;;;;;13.63;2.77;;;11.50;99.90;;;;;;4976420;28;20491;-83
2023/05/02 00:12:46;;;;;;;7.97;2.27;;;11.50;99.90;;;;;;4960450;28;20345;-82
2023/05/02 00:15:12;;;;;;;13.53;3.20;;;11.40;99.90;;;;;;4977451;28;20054;-82
2023/05/02 00:17:42;;;;;;;12.00;2.47;;;11.40;99.90;;;;;;4977174;28;20047;-82
2023/05/02 00:20:11;;;;;;;12.57;2.37;;;11.50;99.90;;;;;;4978062;28;20142;-86
2023/05/02 00:22:38;;;;;;;11.87;2.50;;;11.50;99.90;;;;;;4976304;28;20766;-83
2023/05/02 00:25:04;;;;;;;10.13;2.60;;;11.40;99.90;;;;;;4977243;28;20290;-82
2023/05/02 00:27:30;;;;;;;9.23;3.07;;;11.50;99.90;;;;;;4976553;28;20318;-82
2023/05/02 00:29:58;;;;;;;11.07;2.80;;;11.40;99.90;;;;;;4977200;28;20289;-82
2023/05/02 00:32:24;;;;;;;9.23;2.43;;;11.40;99.90;;;;;;4975758;28;20285;-83
2023/05/02 00:34:50;;;;;;;10.13;2.50;;;11.40;99.90;;;;;;4977677;28;20274;-82
2023/05/02 00:37:15;;;;;;;9.30;2.37;;;11.30;99.90;;;;;;4975923;28;20051;-83
2023/05/02 00:39:41;;;;;;;11.40;2.80;;;11.30;99.90;;;;;;4975157;28;20134;-82
2023/05/02 00:42:07;;;;;;;12.03;2.67;;;11.20;99.90;;;;;;4975774;28;20058;-82
2023/05/02 00:44:32;;;;;;;8.40;2.40;;;11.20;99.90;;;;;;4975930;28;20058;-82
2023/05/02 00:47:00;;;;;;;6.13;2.20;;;11.20;99.90;;;;;;4976807;28;20047;-82
2023/05/02 00:49:26;;;;;;;11.30;2.30;;;11.20;99.90;;;;;;4975839;28;20065;-83
2023/05/02 00:51:53;;;;;;;7.70;2.00;;;11.20;99.90;;;;;;4976769;28;20290;-84
2023/05/02 00:54:19;;;;;;;9.03;2.50;;;11.20;99.90;;;;;;4976684;28;20061;-83
2023/05/02 00:56:46;;;;;;;7.07;2.70;;;11.10;99.90;;;;;;4975479;28;20282;-83
2023/05/02 00:59:13;;;;;;;10.03;2.53;;;11.20;99.90;;;;;;4976368;28;20054;-83
2023/05/02 01:01:55;;;;;;;6.50;2.27;;;11.20;99.90;;;;;;4976447;28;20282;-83
2023/05/02 01:04:47;;;;;;;7.47;2.17;;;11.20;99.90;;;;;;4975866;28;20302;-82
2023/05/02 01:07:21;;;;;;;6.10;2.50;;;11.20;99.90;;;;;;4974027;28;20287;-87
2023/05/02 01:10:10;;;;;;;8.50;2.60;;;11.30;99.90;;;;;;4977250;28;20334;-82
2023/05/02 01:12:36;;;;;;;10.30;2.30;;;11.30;99.90;;;;;;4976251;28;20562;-82
2023/05/02 01:15:06;;;;;;;9.23;2.27;;;11.30;99.90;;;;;;4976602;28;20365;-82
2023/05/02 01:17:34;;;;;;;9.77;2.67;;;11.30;99.90;;;;;;4959623;28;20051;-82
2023/05/02 01:20:04;;;;;;;8.93;3.63;;;11.30;99.90;;;;;;4976021;28;20317;-82
2023/05/02 01:22:31;;;;;;;13.87;3.80;;;11.20;99.90;;;;;;4976046;28;20382;-82
2023/05/02 01:25:15;;;;;;;13.73;3.80;;;11.10;99.90;;;;;;4975509;28;20285;-82
2023/05/02 01:28:02;;;;;;;17.63;5.50;;;11.00;99.90;;;;;;4976981;28;20659;-82
2023/05/02 01:30:32;;;;;;;25.77;5.60;;;10.80;99.90;;;;;;4975046;28;20291;-82
2023/05/02 01:33:00;;;;;;;18.50;4.97;;;10.70;99.90;;;;;;4974386;28;20373;-81
2023/05/02 01:35:27;;;;;;;24.43;4.80;;;10.60;99.90;;;;;;4976535;28;20286;-82
2023/05/02 01:37:54;;;;;;;24.33;5.43;;;10.50;99.90;;;;;;4974985;28;20769;-82
2023/05/02 01:40:21;;;;;;;23.23;5.20;;;10.40;99.90;;;;;;4976057;28;20297;-83
2023/05/02 01:42:50;;;;;;;21.10;6.20;;;10.40;99.90;;;;;;4975896;28;20720;-82
2023/05/02 01:45:17;;;;;;;14.83;3.70;;;10.30;99.90;;;;;;4974782;28;20785;-82
2023/05/02 01:47:44;;;;;;;19.60;5.10;;;10.30;99.90;;;;;;4974727;28;20297;-82
2023/05/02 01:50:16;;;;;;;19.30;5.03;;;10.20;99.90;;;;;;4975410;28;20274;-81
2023/05/02 01:52:43;;;;;;;17.00;4.77;;;10.20;99.90;;;;;;4959090;28;20297;-82
2023/05/02 01:55:12;;;;;;;19.67;4.00;;;10.10;99.90;;;;;;4976215;28;20333;-82
2023/05/02 01:57:41;;;;;;;17.30;4.67;;;10.10;99.90;;;;;;4958728;28;20290;-81
2023/05/02 02:00:08;;;;;;;16.50;4.73;;;10.00;99.90;;;;;;4974359;28;20313;-81
2023/05/02 02:02:35;;;;;;;14.47;4.10;;;10.00;99.90;;;;;;4974345;28;20674;-82
2023/05/02 02:05:04;;;;;;;19.37;4.50;;;9.90;99.90;;;;;;4975139;28;20322;-82
2023/05/02 02:07:30;;;;;;;19.60;4.60;;;9.90;99.90;;;;;;4974371;28;20282;-82
2023/05/02 02:09:56;;;;;;;21.73;5.43;;;9.80;99.90;;;;;;4974795;28;20321;-82
2023/05/02 02:12:26;;;;;;;19.33;4.23;;;9.70;99.90;;;;;;4975295;28;20286;-83
2023/05/02 02:15:01;;;;;;;21.70;5.67;;;9.70;99.90;;;;;;4975155;28;20817;-82
2023/05/02 02:17:59;;;;;;;26.10;4.68;;;9.70;99.90;;;;;;4975157;28;20332;-83
2023/05/02 02:20:26;;;;;;;19.17;4.50;;;9.60;99.90;;;;;;4975160;28;20047;-83
2023/05/02 02:22:53;;;;;;;16.23;4.70;;;9.60;99.90;;;;;;4974235;28;20351;-82
2023/05/02 02:25:19;;;;;;;23.13;5.10;;;9.50;99.90;;;;;;4975135;28;20278;-82
2023/05/02 02:27:47;;;;;;;23.73;5.27;;;9.50;99.90;;;;;;4975143;28;20278;-82
2023/05/02 02:30:12;;;;;;;19.33;4.30;;;9.50;99.90;;;;;;4974113;28;20290;-82
2023/05/02 02:32:38;;;;;;;19.67;4.87;;;9.40;99.90;;;;;;4974942;28;20366;-82
2023/05/02 02:35:05;;;;;;;22.90;5.10;;;9.30;99.90;;;;;;4974621;28;20063;-82
2023/05/02 02:37:44;;;;;;;20.43;4.87;;;9.20;99.90;;;;;;4973992;28;20506;-82
2023/05/02 02:40:33;;;;;;;16.57;4.03;;;9.20;99.90;;;;;;4974659;28;20304;-82
2023/05/02 02:43:16;;;;;;;19.83;5.10;;;9.10;99.90;;;;;;4974252;28;20297;-81
2023/05/02 02:46:14;;;;;;;20.13;4.10;;;9.10;99.90;;;;;;4973882;28;20845;-82
2023/05/02 02:48:57;;;;;;;22.33;4.40;;;9.10;99.90;;;;;;4973418;28;20365;-82
2023/05/02 02:51:42;;;;;;;16.93;3.80;;;9.10;99.90;;;;;;4973901;28;20290;-82
2023/05/02 02:54:12;;;;;;;;;;;9.10;99.90;;;;;;4976039;28;20286;-82
2023/05/02 02:56:44;;;;;;;20.03;4.40;;;9.10;99.90;;;;;;4975554;28;19980;-82
2023/05/02 02:59:27;;;;;;;14.10;3.73;;;9.00;99.90;;;;;;4973517;28;20310;-82
2023/05/02 03:02:07;;;;;;;17.60;3.40;;;9.00;99.90;;;;;;4975569;28;20305;-81
2023/05/02 03:04:39;;;;;;;14.10;3.23;;;9.00;99.90;;;;;;4961993;28;20344;-82
2023/05/02 03:07:05;;;;;;;19.33;4.00;;;9.00;99.90;;;;;;4978615;28;20377;-81
2023/05/02 03:09:41;;;;;;;19.90;3.30;;;9.00;99.90;;;;;;4978695;28;20705;-82
2023/05/02 03:12:07;;;;;;;17.30;4.37;;;9.00;99.90;;;;;;4977590;28;20055;-82
2023/05/02 03:14:34;;;;;;;13.70;3.57;;;9.00;99.90;;;;;;4977568;28;20301;-82
2023/05/02 03:16:59;;;;;;;16.07;3.60;;;8.90;99.90;;;;;;4978559;28;20185;-82
2023/05/02 03:19:26;;;;;;;17.03;3.47;;;8.90;99.90;;;;;;4977713;28;20369;-82
2023/05/02 03:21:51;;;;;;;18.77;4.70;;;8.90;99.90;;;;;;4978463;28;20057;-82
2023/05/02 03:24:17;;;;;;;15.67;3.27;;;8.90;99.90;;;;;;4976967;28;20290;-82
2023/05/02 03:26:43;;;;;;;15.43;3.57;;;9.00;99.90;;;;;;4978919;28;20181;-82
2023/05/02 03:29:08;;;;;;;16.57;3.27;;;9.00;99.90;;;;;;4977375;28;20055;-82
2023/05/02 03:31:34;;;;;;;15.87;3.97;;;8.90;99.90;;;;;;4978320;28;20054;-81
2023/05/02 03:34:00;;;;;;;11.77;2.60;;;8.90;99.90;;;;;;4944814;28;20086;-82
2023/05/02 03:36:26;;;;;;;13.47;2.73;;;8.90;99.90;;;;;;4978202;28;20125;-82
2023/05/02 03:38:52;;;;;;;14.83;2.70;;;8.80;99.90;;;;;;4977177;28;20050;-82
2023/05/02 03:41:19;;;;;;;19.93;3.00;;;8.80;99.90;;;;;;4961549;28;20627;-82
2023/05/02 03:43:45;;;;;;;10.77;2.37;;;8.80;99.90;;;;;;4977182;28;20499;-82
2023/05/02 03:46:11;;;;;;;13.43;2.80;;;8.80;99.90;;;;;;4977040;28;20294;-82
2023/05/02 03:48:37;;;;;;;16.43;3.83;;;8.90;99.90;;;;;;4961641;28;20574;-82
2023/05/02 03:51:06;;;;;;;9.70;2.50;;;8.80;99.90;;;;;;4978007;28;20050;-82
2023/05/02 03:53:32;;;;;;;8.27;2.77;;;8.80;99.90;;;;;;4976879;28;20038;-82
2023/05/02 03:55:58;;;;;;;10.27;2.93;;;8.70;99.90;;;;;;4977812;28;20286;-82
2023/05/02 03:58:24;;;;;;;12.27;2.90;;;8.70;99.90;;;;;;4978048;28;20134;-82
2023/05/02 04:00:52;;;;;;;11.67;2.17;;;8.70;99.90;;;;;;4960736;28;20082;-82
2023/05/02 04:03:18;;;;;;;14.37;3.10;;;8.70;99.90;;;;;;4978255;28;20278;-82
2023/05/02 04:05:44;;;;;;;12.27;2.93;;;8.70;99.90;;;;;;4977188;28;20301;-83
2023/05/02 04:08:10;;;;;;;12.20;3.13;;;8.70;99.90;;;;;;4976621;28;20290;-83
2023/05/02 04:10:36;;;;;;;13.63;3.07;;;8.70;99.90;;;;;;4977320;28;20301;-86
2023/05/02 04:13:02;;;;;;;8.83;1.97;;;8.60;99.90;;;;;;4977156;28;20475;-82
2023/05/02 04:15:30;;;;;;;13.13;2.63;;;8.70;99.90;;;;;;4977183;28;20054;-82
2023/05/02 04:17:57;;;;;;;12.57;2.40;;;8.60;99.90;;;;;;4978158;28;20611;-81
2023/05/02 04:20:23;;;;;;;8.83;2.17;;;8.70;99.90;;;;;;4976178;28;20817;-82
2023/05/02 04:22:49;;;;;;;11.93;3.23;;;8.70;99.90;;;;;;4977296;28;20286;-82
2023/05/02 04:25:15;;;;;;;10.83;2.50;;;8.70;99.90;;;;;;4976819;28;20294;-82
2023/05/02 04:27:42;;;;;;;8.50;1.70;;;8.70;99.90;;;;;;4977239;28;20058;-83
2023/05/02 04:30:09;;;;;;;6.63;1.93;;;8.70;99.90;;;;;;4977029;28;20274;-83
2023/05/02 04:32:35;;;;;;;7.40;1.80;;;8.70;99.90;;;;;;4976900;28;20290;-82
2023/05/02 04:35:01;;;;;;;10.57;2.73;;;8.60;99.90;;;;;;4960060;28;20300;-83
2023/05/02 04:37:27;;;;;;;7.20;1.57;;;8.70;99.90;;;;;;4977403;28;20289;-82
2023/05/02 04:39:53;;;;;;;5.07;1.50;;;8.70;99.90;;;;;;4976927;28;20302;-82
2023/05/02 04:42:18;;;;;;;7.33;1.77;;;8.70;99.90;;;;;;4975808;28;20046;-82
2023/05/02 04:44:44;;;;;;;5.80;1.50;;;8.70;99.90;;;;;;4977229;28;20133;-84
2023/05/02 04:47:10;;;;;;;5.93;1.63;;;8.80;99.90;;;;;;4975943;28;20130;-84
2023/05/02 04:49:36;;;;;;;8.00;2.00;;;8.80;99.90;;;;;;4975949;28;20058;-83
2023/05/02 04:52:02;;;;;;;8.43;2.30;;;8.90;99.90;;;;;;4977050;28;20364;-83
2023/05/02 04:54:28;;;;;;;7.00;2.13;;;8.90;99.90;;;;;;4977248;28;20467;-82
2023/05/02 04:56:53;;;;;;;7.53;2.00;;;9.00;99.90;;;;;;4976637;28;20129;-82
2023/05/02 04:59:19;;;;;;;8.83;1.70;;;9.00;99.90;;;;;;4976879;28;20049;-82
2023/05/02 05:01:45;;;;;;;16.07;2.27;;;9.00;99.90;;;;;;4977100;28;20086;-82
2023/05/02 05:04:10;;;;;;;8.63;1.70;;;9.00;99.90;;;;;;4976136;28;20101;-82
2023/05/02 05:06:36;;;;;;;12.67;2.40;;;9.10;99.90;;;;;;4975006;28;20557;-83
2023/05/02 05:09:02;;;;;;;8.70;2.10;;;9.00;99.90;;;;;;4975205;28;20093;-83
2023/05/02 05:11:28;;;;;;;8.47;1.60;;;9.00;99.90;;;;;;4975287;28;20387;-82
2023/05/02 05:13:54;;;;;;;12.33;2.30;;;9.00;99.90;;;;;;4975692;28;20039;-83
2023/05/02 05:16:19;;;;;;;6.37;1.90;;;9.00;99.90;;;;;;4976308;28;20089;-82
2023/05/02 05:18:46;;;;;;;13.73;2.90;;;8.90;99.90;;;;;;4976312;28;20386;-83
2023/05/02 05:21:11;;;;;;;11.67;2.20;;;9.00;99.90;;;;;;4976200;28;20054;-82
2023/05/02 05:23:37;;;;;;;9.33;2.23;;;9.00;99.90;;;;;;4974821;28;20293;-82
2023/05/02 05:26:16;;;;;;;11.53;2.20;;;8.90;99.90;;;;;;4975583;28;20111;-82
2023/05/02 05:28:42;;;;;;;16.77;3.27;;;8.90;99.90;;;;;;4976775;28;20102;-82
2023/05/02 05:31:10;;;;;;;9.87;2.13;;;8.90;99.90;;;;;;4975756;28;20829;-82
2023/05/02 05:33:37;;;;;;;9.03;2.23;;;8.80;99.90;;;;;;4975885;28;20365;-82
2023/05/02 05:36:11;;;;;;;11.77;3.03;;;8.80;99.90;;;;;;4974950;28;20295;-83
2023/05/02 05:38:37;;;;;;;10.00;2.40;;;8.70;99.90;;;;;;4974676;28;20314;-82
2023/05/02 05:41:10;;;;;;;6.73;1.90;;;8.70;99.90;;;;;;4975795;28;20345;-82
2023/05/02 05:43:36;;;;;;;8.50;2.10;;;8.70;99.90;;;;;;4976443;28;20622;-83
2023/05/02 05:46:02;;;;;;;9.57;2.10;;;8.60;99.90;;;;;;4958791;28;20286;-83
2023/05/02 05:48:28;;;;;;;10.70;2.20;;;8.60;99.90;;;;;;4975847;28;20345;-83
2023/05/02 05:50:53;;;;;;;12.67;2.20;;;8.60;99.90;;;;;;4975581;28;20153;-83
2023/05/02 05:53:20;;;;;;;13.83;2.53;;;8.70;99.90;;;;;;4975762;28;20546;-83
2023/05/02 05:55:46;;;;;;;13.03;3.20;;;8.70;99.90;;;;;;4975627;28;20113;-83
2023/05/02 05:58:12;;;;;;;11.03;2.87;;;8.80;99.90;;;;;;4974359;28;20373;-83
2023/05/02 06:00:38;;;;;;;12.63;2.47;;;8.90;99.90;;;;;;4974346;28;20058;-83
2023/05/02 06:03:04;;;;;;;11.27;2.13;;;8.90;99.90;;;;;;4976205;28;20053;-83
2023/05/02 06:05:30;;;;;;;10.40;2.17;;;9.00;99.90;;;;;;4975449;28;20746;-83
2023/05/02 06:07:57;;;;;;;9.07;2.40;;;9.00;99.90;;;;;;4974394;28;20286;-84
2023/05/02 06:10:26;;;;;;;9.17;2.50;;;9.10;99.90;;;;;;4975474;28;20278;-83
2023/05/02 06:12:52;;;;;;;10.07;2.63;;;9.10;99.90;;;;;;4975867;28;20282;-84
2023/05/02 06:15:20;;;;;;;12.10;2.60;;;9.20;99.90;;;;;;4975867;28;20321;-83
2023/05/02 06:17:46;;;;;;;12.17;2.73;;;9.10;99.90;;;;;;4942665;28;20334;-83
2023/05/02 06:20:11;;;;;;;11.07;2.70;;;9.10;99.90;;;;;;4975724;28;20129;-83
2023/05/02 06:22:38;;;;;;;11.80;2.33;;;9.10;99.90;;;;;;4973992;28;20513;-83
2023/05/02 06:25:05;;;;;;;10.27;2.60;;;9.10;99.90;;;;;;4974178;28;20061;-83
2023/05/02 06:27:30;;;;;;;11.40;2.63;;;9.10;99.90;;;;;;4973921;28;20366;-83
2023/05/02 06:29:56;;;;;;;12.03;3.07;;;9.20;99.90;;;;;;4975671;28;20826;-83
2023/05/02 06:32:22;;;;;;;6.33;2.27;;;9.20;99.90;;;;;;4974088;28;20057;-82
2023/05/02 06:34:48;;;;;;;8.80;2.27;;;9.30;99.90;;;;;;4974193;28;20057;-82
2023/05/02 06:37:14;;;;;;;12.37;2.93;;;9.40;99.90;;;;;;4975171;28;20073;-82
2023/05/02 06:39:40;;;;;;;13.00;3.37;;;9.50;99.90;;;;;;4974647;28;20043;-82
2023/05/02 06:42:05;;;;;;;7.93;2.60;;;9.60;99.90;;;;;;4974820;28;20305;-82
2023/05/02 06:44:31;;;;;;;10.33;2.20;;;9.60;99.90;;;;;;4973940;28;20086;-82
2023/05/02 06:46:57;;;;;;;10.90;2.93;;;9.60;99.90;;;;;;4974884;28;20125;-84
2023/05/02 06:49:22;;;;;;;12.17;3.00;;;9.60;99.90;;;;;;4975024;28;20535;-83
2023/05/02 06:51:48;;;;;;;10.50;2.70;;;9.70;99.90;;;;;;4974852;28;20141;-82
2023/05/02 06:54:14;;;;;;;8.67;2.87;;;9.70;99.90;;;;;;4974838;28;20042;-83
2023/05/02 06:56:41;;;;;;;11.27;2.83;;;9.70;99.90;;;;;;4973660;28;20050;-82
2023/05/02 06:59:07;;;;;;;12.03;2.43;;;9.70;99.90;;;;;;4975261;28;20290;-82
2023/05/02 07:01:33;;;;;;;10.30;2.87;;;9.70;99.90;;;;;;4973495;28;20306;-82
2023/05/02 07:03:59;;;;;;;9.63;2.50;;;9.60;99.90;;;;;;4974665;28;20043;-83
2023/05/02 07:06:25;;;;;;;10.97;2.67;;;9.50;99.90;;;;;;4957895;28;20058;-83
2023/05/02 07:08:51;;;;;;;13.20;2.80;;;9.50;99.90;;;;;;4973737;28;20304;-83
2023/05/02 07:11:17;;;;;;;11.17;3.30;;;9.40;99.90;;;;;;4974628;28;20290;-83
2023/05/02 07:13:43;;;;;;;12.23;3.20;;;9.50;99.90;;;;;;4975506;28;20054;-83
2023/05/02 07:16:08;;;;;;;14.77;2.83;;;9.40;99.90;;;;;;4974610;28;20398;-82
2023/05/02 07:18:35;;;;;;;10.40;3.47;;;9.40;99.90;;;;;;4974655;28;20058;-83
2023/05/02 07:21:01;;;;;;;11.43;2.93;;;9.50;99.90;;;;;;4974518;28;20043;-84
2023/05/02 07:23:27;;;;;;;11.83;2.70;;;9.40;99.90;;;;;;4957516;28;20297;-84
2023/05/02 07:25:53;;;;;;;8.40;3.10;;;9.50;99.90;;;;;;4973586;28;20047;-82
2023/05/02 07:28:18;;;;;;;12.73;3.17;;;9.50;99.90;;;;;;4975072;28;20285;-83
2023/05/02 07:30:44;;;;;;;15.50;3.00;;;9.60;99.90;;;;;;4973239;28;20050;-83
2023/05/02 07:33:10;;;;;;;11.70;2.60;;;9.60;99.90;;;;;;4974057;28;20100;-82
2023/05/02 07:35:36;;;;;;;11.13;2.73;;;9.60;99.90;;;;;;4973189;28;20294;-84
2023/05/02 07:38:01;;;;;;;13.57;3.23;;;9.50;99.90;;;;;;4975136;28;20051;-86
2023/05/02 07:40:27;;;;;;;9.23;2.50;;;9.50;99.90;;;;;;4974286;28;20422;-82
2023/05/02 07:42:53;;;;;;;11.40;3.17;;;9.40;99.90;;;;;;4974211;28;20051;-83
2023/05/02 07:45:19;;;;;;;12.57;3.00;;;9.50;99.90;;;;;;4974300;28;20073;-83
2023/05/02 07:47:45;;;;;;;13.53;2.80;;;9.60;99.90;;;;;;4975643;28;20050;-85
2023/05/02 07:50:11;;;;;;;9.83;2.93;;;9.70;99.90;;;;;;4978505;28;20070;-84
2023/05/02 07:52:37;;;;;;;15.27;3.17;;;9.90;99.90;;;;;;4977664;28;20302;-84
2023/05/02 07:55:04;;;;;;;7.60;2.07;;;10.00;99.90;;;;;;4961660;28;20066;-85
2023/05/02 07:57:29;;;;;;;10.40;2.43;;;10.00;99.90;;;;;;4977767;28;20411;-85
2023/05/02 07:59:56;;;;;;;8.13;2.20;;;10.10;99.90;;;;;;4977681;28;20294;-85
2023/05/02 08:02:22;;;;;;;11.17;2.53;;;10.20;99.90;;;;;;4978305;28;20541;-84
2023/05/02 08:04:48;;;;;;;8.60;2.60;;;10.40;99.90;;;;;;4976413;28;20290;-84
2023/05/02 08:07:14;;;;;;;8.63;2.00;;;10.50;99.90;;;;;;4977628;28;20282;-84
2023/05/02 08:09:40;;;;;;;9.07;2.80;;;10.60;99.90;;;;;;4977877;28;20285;-84
2023/05/02 08:12:06;;;;;;;7.83;2.30;;;10.70;99.90;;;;;;4960606;28;20129;-81
2023/05/02 08:14:32;;;;;;;9.43;2.07;;;10.60;99.20;;;;;;4978301;28;20053;-84
2023/05/02 08:16:59;;;;;;;11.00;2.60;;;10.60;99.20;;;;;;4977488;28;20047;-85
2023/05/02 08:19:25;;;;;;;9.57;1.90;;;10.60;99.10;;;;;;4977294;28;20282;-84
2023/05/02 08:21:53;;;;;;;7.23;1.83;;;10.50;96.70;;;;;;4977332;28;20278;-83
2023/05/02 08:24:18;;;;;;;9.63;1.67;;;10.60;98.30;;;;;;4977076;28;20816;-84
2023/05/02 08:26:44;;;;;;;11.07;2.40;;;10.60;91.20;;;;;;4977340;28;20322;-84
2023/05/02 08:29:10;;;;;;;8.87;2.47;;;10.60;97.20;;;;;;4977463;28;20082;-83
2023/05/02 08:31:37;;;;;;;9.57;1.90;;;10.70;96.90;;;;;;4977782;28;20043;-84
2023/05/02 08:34:02;;;;;;;6.70;2.43;;;10.80;96.30;;;;;;4977039;28;20694;-83
2023/05/02 08:36:28;;;;;;;7.90;1.73;;;10.90;95.60;;;;;;4977137;28;20294;-84
2023/05/02 08:38:54;;;;;;;7.40;2.10;;;11.00;95.10;;;;;;4977091;28;20047;-83
2023/05/02 08:41:21;;;;;;;7.97;1.97;;;11.10;93.70;;;;;;4976892;28;20039;-84
2023/05/02 08:43:46;;;;;;;9.90;2.73;;;11.20;93.20;;;;;;4959916;28;20046;-84
2023/05/02 08:46:14;;;;;;;8.53;1.60;;;11.20;85.80;;;;;;4976888;28;20282;-84
2023/05/02 08:48:41;;;;;;;8.00;1.83;;;11.20;90.80;;;;;;4976933;28;20127;-84
2023/05/02 08:51:14;;;;;;;7.53;1.83;;;11.20;92.60;;;;;;4976909;28;20825;-84
2023/05/02 08:53:41;;;;;;;7.60;2.17;;;11.20;91.90;;;;;;4976784;28;20758;-83
2023/05/02 08:56:08;;;;;;;11.43;3.30;;;11.20;92.70;;;;;;4976772;28;20282;-84
2023/05/02 08:58:38;;;;;;;5.47;1.67;;;11.20;91.90;;;;;;4976061;28;20359;-77
2023/05/02 09:01:13;;;;;;;6.57;2.00;;;11.20;91.60;;;;;;4976373;28;20299;-84
2023/05/02 09:03:41;;;;;;;7.70;1.90;;;11.30;92.00;;;;;;4977313;28;20618;-82
2023/05/02 09:06:12;;;;;;;5.13;1.63;;;11.30;92.60;;;;;;4976568;28;20278;-85
2023/05/02 09:08:39;;;;;;;12.87;2.13;;;11.40;92.00;;;;;;4976591;28;20322;-86
2023/05/02 09:11:07;;;;;;;7.80;1.80;;;11.40;91.80;;;;;;4976735;28;20745;-83
2023/05/02 09:13:41;;;;;;;7.07;1.60;;;11.40;92.10;;;;;;4976465;28;20286;-84
2023/05/02 09:16:12;;;;;;;7.30;1.65;;;11.40;91.50;;;;;;4976433;28;20283;-82
2023/05/02 09:18:44;;;;;;;8.63;2.07;;;11.50;91.70;;;;;;4976404;28;20050;-83
2023/05/02 09:21:24;;;;;;;6.20;1.77;;;11.60;91.10;;;;;;4975900;28;20317;-84
2023/05/02 09:23:58;;;;;;;5.00;1.47;;;11.70;79.30;;;;;;4976723;28;20287;-83
2023/05/02 09:26:32;;;;;;;;;;;11.70;86.70;;;;;;4959597;28;20297;-83
2023/05/02 09:29:03;;;;;;;3.90;1.00;;;11.70;84.90;;;;;;4976175;28;20379;-80
2023/05/02 09:31:33;;;;;;;7.37;1.27;;;11.70;84.30;;;;;;4975294;28;20790;-86
2023/05/02 09:34:10;;;;;;;4.07;1.30;;;11.70;82.00;;;;;;4975886;28;20305;-76
2023/05/02 09:36:41;;;;;;;6.37;1.40;;;11.70;79.50;;;;;;4975864;28;20286;-85
2023/05/02 09:39:14;;;;;;;3.73;1.50;;;11.80;80.90;;;;;;4975918;28;20282;-86
2023/05/02 09:41:41;;;;;;;3.87;1.23;;;11.90;77.60;;;;;;4975862;28;20921;-85
2023/05/02 09:44:10;;;;;;;6.10;1.30;;;12.00;80.10;;;;;;4975880;28;20294;-85
2023/05/02 09:46:43;;;;;;;5.70;1.63;;;12.10;77.40;;;;;;4975791;28;20282;-84
2023/05/02 09:49:09;;;;;;;4.10;1.20;;;12.20;78.60;;;;;;4975776;28;20282;-83
2023/05/02 09:51:35;;;;;;;6.87;1.37;;;12.30;76.30;;;;;;4975665;28;20770;-81
2023/05/02 09:54:02;;;;;;;3.87;1.40;;;12.30;74.60;;;;;;4975671;28;20291;-83
2023/05/02 09:56:27;;;;;;;5.60;1.37;;;12.30;74.70;;;;;;4975792;28;20671;-83
2023/05/02 09:59:13;;;;;;;6.20;1.70;;;12.50;75.10;;;;;;4975641;28;20297;-84
2023/05/02 10:01:40;;;;;;;;;;;12.60;74.70;;;;;;4976086;28;20074;-80
2023/05/02 10:04:15;;;;;;;4.37;1.20;;;12.70;75.40;;;;;;4975474;28;19922;-89
2023/05/02 10:06:42;;;;;;;6.07;1.50;;;12.70;75.50;;;;;;4975513;28;20359;-85
2023/05/02 10:09:10;;;;;;;9.13;1.40;;;12.70;75.70;;;;;;4975370;28;20047;-85
2023/05/02 10:11:39;;;;;;;2.40;1.00;;;12.70;76.90;;;;;;4975080;28;20274;-84
2023/05/02 10:14:08;;;;;;;5.10;1.20;;;12.70;77.20;;;;;;4975066;28;20293;-83
2023/05/02 10:16:37;;;;;;;4.60;1.40;;;12.50;72.50;;;;;;4974881;28;20292;-83
2023/05/02 10:19:08;;;;;;;4.10;1.33;;;12.20;73.70;;;;;;4973882;28;20305;-83
2023/05/02 10:21:35;;;;;;;4.47;1.47;;;12.20;76.10;;;;;;4975278;28;20298;-84
2023/05/02 10:24:05;;;;;;;7.00;1.60;;;12.40;79.10;;;;;;4975659;28;20316;-83
2023/05/02 10:26:33;;;;;;;8.90;2.10;;;12.60;78.20;;;;;;4975835;28;20282;-83
2023/05/02 10:29:00;;;;;;;4.43;1.43;;;12.60;77.10;;;;;;4974853;28;20293;-84
2023/05/02 10:31:32;;;;;;;3.23;1.27;;;12.60;76.50;;;;;;4975226;28;20282;-84
2023/05/02 10:34:00;;;;;;;4.80;1.77;;;12.60;76.50;;;;;;4975330;28;20298;-84
2023/05/02 10:36:27;;;;;;;7.73;1.63;;;12.60;75.10;;;;;;4973903;28;20290;-83
2023/05/02 10:38:54;;;;;;;6.27;1.33;;;12.50;74.90;;;;;;4975184;28;20313;-84
2023/05/02 10:41:23;;;;;;;5.67;1.13;;;12.70;76.50;;;;;;4974797;28;20294;-84
2023/05/02 10:43:49;;;;;;;3.30;1.10;;;12.90;72.50;;;;;;4975565;28;20282;-84
2023/05/02 10:46:34;;;;;;;8.07;1.10;;;12.90;72.50;;;;;;4974857;28;20675;-85
2023/05/02 10:49:05;;;;;;;3.80;1.20;;;13.00;69.80;;;;;;4974809;28;20371;-84
2023/05/02 10:51:32;;;;;;;4.53;1.43;;;12.90;70.30;;;;;;4974770;28;20493;-84
2023/05/02 10:54:19;;;;;;;9.03;1.50;;;12.70;72.70;;;;;;4974567;28;20774;-84
2023/05/02 10:57:02;;;;;;;5.53;1.40;;;12.60;76.30;;;;;;4974692;28;20296;-84
2023/05/02 10:59:43;;;;;;;5.27;1.30;;;12.50;79.70;;;;;;4974556;28;20286;-83
2023/05/02 11:02:33;;;;;;;5.37;1.67;;;12.20;79.60;;;;;;4975203;28;20622;-84
2023/05/02 11:05:08;;;;;;;6.27;1.60;;;12.10;80.00;;;;;;4971851;28;20314;-84
2023/05/02 11:07:35;;;;;;;7.07;1.80;;;12.10;83.50;;;;;;4974559;28;20278;-84
2023/05/02 11:10:16;;;;;;;4.30;1.23;;;12.20;84.90;;;;;;4974590;28;20171;-84
2023/05/02 11:12:55;;;;;;;6.47;1.70;;;12.30;85.80;;;;;;4974824;28;20752;-84
2023/05/02 11:15:27;;;;;;;9.07;1.50;;;12.40;87.60;;;;;;4974576;28;20293;-83
2023/05/02 11:18:11;;;;;;;5.10;1.60;;;12.40;87.70;;;;;;4973791;28;20678;-85
2023/05/02 11:20:43;;;;;;;7.33;1.67;;;12.60;89.10;;;;;;4974429;28;20352;-83
2023/05/02 11:23:20;;;;;;;6.33;1.50;;;12.70;89.90;;;;;;4976885;28;20337;-83
2023/05/02 11:25:51;;;;;;;4.17;1.40;;;12.70;89.70;;;;;;4978011;28;20836;-82
2023/05/02 11:28:35;;;;;;;5.90;1.77;;;12.80;89.10;;;;;;4978327;28;20754;-83
2023/05/02 11:31:01;;;;;;;5.20;1.47;;;12.80;86.40;;;;;;4978259;28;20289;-82
2023/05/02 11:33:28;;;;;;;4.47;1.57;;;12.80;87.40;;;;;;4978527;28;20274;-83
2023/05/02 11:35:56;;;;;;;5.40;1.97;;;12.90;86.70;;;;;;4976483;28;20666;-83
2023/05/02 11:38:23;;;;;;;4.33;1.40;;;13.00;85.80;;;;;;4978135;28;20356;-83
2023/05/02 11:40:54;;;;;;;5.97;1.40;;;13.00;85.10;;;;;;4977931;28;20305;-84
2023/05/02 11:43:20;;;;;;;5.73;1.80;;;12.90;84.90;;;;;;4978335;28;20298;-83
2023/05/02 11:45:46;;;;;;;4.93;1.20;;;12.90;85.10;;;;;;4977575;28;20631;-85
2023/05/02 11:48:15;;;;;;;5.73;1.37;;;12.90;86.00;;;;;;4978001;28;20294;-84
2023/05/02 11:50:42;;;;;;;5.50;1.53;;;12.90;85.70;;;;;;4977956;28;20274;-79
2023/05/02 11:53:16;;;;;;;6.83;1.60;;;12.90;87.40;;;;;;4977313;28;20813;-82
2023/05/02 11:55:53;;;;;;;6.63;1.70;;;12.90;88.40;;;;;;4978007;28;20282;-76
2023/05/02 11:58:21;;;;;;;3.53;1.30;;;12.80;85.00;;;;;;4978627;28;20381;-81
2023/05/02 12:00:47;;;;;;;3.87;1.37;;;12.60;87.30;;;;;;4977677;28;20793;-79
2023/05/02 12:03:42;;;;;;;5.00;1.50;;;12.70;88.40;;;;;;4977721;28;20290;-77
2023/05/02 12:06:13;;;;;;;4.00;1.40;;;12.70;87.30;;;;;;4973091;28;20303;-78
2023/05/02 12:08:40;;;;;;;3.97;1.30;;;12.70;87.10;;;;;;4978292;28;20754;-78
2023/05/02 12:11:06;;;;;;;5.03;1.60;;;12.70;87.10;;;;;;4977611;28;20293;-78
2023/05/02 12:13:32;;;;;;;3.63;1.40;;;12.60;86.00;;;;;;4978359;28;20294;-82
2023/05/02 12:15:58;;;;;;;8.90;1.30;;;12.60;85.60;;;;;;4978034;28;20117;-76
2023/05/02 12:18:25;;;;;;;10.93;1.47;;;12.60;84.20;;;;;;4978202;28;20089;-77
2023/05/02 12:20:52;;;;;;;6.17;1.27;;;12.60;84.10;;;;;;4978092;28;20313;-76
2023/05/02 12:23:25;;;;;;;8.30;2.30;;;12.50;87.20;;;;;;4977103;28;20801;-75
2023/05/02 12:25:51;;;;;;;8.63;1.80;;;12.50;88.30;;;;;;4977644;28;20309;-84
2023/05/02 12:28:18;;;;;;;7.20;1.37;;;12.50;89.30;;;;;;4960230;28;20762;-79
2023/05/02 12:30:47;;;;;;;5.47;1.50;;;12.40;89.40;;;;;;4977250;28;20053;-82
2023/05/02 12:33:13;;;;;;;3.67;1.13;;;12.30;89.30;;;;;;4975825;28;20369;-83
2023/05/02 12:35:38;;;;;;;4.90;1.27;;;12.20;90.60;;;;;;4977204;28;20369;-82
2023/05/02 12:38:24;;;;;;;5.30;1.10;;;12.10;90.10;;;;;;4975641;28;20094;-81
2023/05/02 12:40:56;;;;;;;3.87;1.20;;;12.10;90.80;;;;;;4976744;28;20061;-82
2023/05/02 12:43:22;;;;;;;4.63;1.20;;;12.10;90.80;;;;;;4977127;28;20286;-82
2023/05/02 12:45:49;;;;;;;4.90;1.50;;;12.10;90.00;;;;;;4976986;28;20279;-82
2023/05/02 12:48:23;;;;;;;6.17;1.70;;;12.20;91.00;;;;;;4977225;28;20341;-81
2023/05/02 12:50:49;;;;;;;4.90;1.13;;;12.30;91.40;;;;;;4977006;28;20290;-80
2023/05/02 12:53:15;;;;;;;5.93;1.17;;;12.40;91.50;;;;;;4975886;28;20294;-80
2023/05/02 12:55:41;;;;;;;6.63;1.47;;;12.40;92.10;;;;;;4976088;28;20599;-79